sensor_id;sensor_type;location;lat;lon;timestamp;P1;durP1;ratioP1;P2;durP2;ratioP2
56045;SDS011;41913;51.030;3.706;2024-03-07T00:02:11;10.75;;;8.98;;
56045;SDS011;41913;51.030;3.706;2024-03-07T00:04:37;10.05;;;8.00;;
56045;SDS011;41913;51.030;3.706;2024-03-07T00:07:03;8.70;;;7.90;;
56045;SDS011;41913;51.030;3.706;2024-03-07T00:09:32;12.18;;;8.77;;
56045;SDS011;41913;51.030;3.706;2024-03-07T00:11:59;12.68;;;8.27;;
56045;SDS011;41913;51.030;3.706;2024-03-07T00:14:28;9.65;;;8.20;;
56045;SDS011;41913;51.030;3.706;2024-03-07T00:16:54;10.63;;;9.02;;
56045;SDS011;41913;51.030;3.706;2024-03-07T00:19:26;14.07;;;7.57;;
56045;SDS011;41913;51.030;3.706;2024-03-07T00:21:52;10.00;;;9.05;;
56045;SDS011;41913;51.030;3.706;2024-03-07T00:24:19;12.10;;;8.43;;
56045;SDS011;41913;51.030;3.706;2024-03-07T00:26:46;9.10;;;8.07;;
56045;SDS011;41913;51.030;3.706;2024-03-07T00:29:11;9.07;;;8.02;;
56045;SDS011;41913;51.030;3.706;2024-03-07T00:31:38;9.98;;;8.38;;
56045;SDS011;41913;51.030;3.706;2024-03-07T00:34:04;9.55;;;8.38;;
56045;SDS011;41913;51.030;3.706;2024-03-07T00:36:30;9.77;;;8.20;;
56045;SDS011;41913;51.030;3.706;2024-03-07T00:38:56;10.43;;;9.20;;
56045;SDS011;41913;51.030;3.706;2024-03-07T00:41:21;9.25;;;8.25;;
56045;SDS011;41913;51.030;3.706;2024-03-07T00:43:47;11.10;;;8.43;;
56045;SDS011;41913;51.030;3.706;2024-03-07T00:46:13;10.52;;;8.68;;
56045;SDS011;41913;51.030;3.706;2024-03-07T00:48:39;10.27;;;9.27;;
56045;SDS011;41913;51.030;3.706;2024-03-07T00:51:05;9.60;;;8.35;;
56045;SDS011;41913;51.030;3.706;2024-03-07T00:53:31;11.00;;;9.15;;
56045;SDS011;41913;51.030;3.706;2024-03-07T00:55:57;9.57;;;8.63;;
56045;SDS011;41913;51.030;3.706;2024-03-07T00:58:23;14.00;;;9.43;;
56045;SDS011;41913;51.030;3.706;2024-03-07T01:00:49;9.40;;;8.52;;
56045;SDS011;41913;51.030;3.706;2024-03-07T01:03:15;9.60;;;8.60;;
56045;SDS011;41913;51.030;3.706;2024-03-07T01:05:43;9.27;;;8.30;;
56045;SDS011;41913;51.030;3.706;2024-03-07T01:08:09;10.23;;;9.23;;
56045;SDS011;41913;51.030;3.706;2024-03-07T01:10:34;11.85;;;9.55;;
56045;SDS011;41913;51.030;3.706;2024-03-07T01:13:00;11.52;;;8.90;;
56045;SDS011;41913;51.030;3.706;2024-03-07T01:15:27;10.52;;;9.43;;
56045;SDS011;41913;51.030;3.706;2024-03-07T01:17:53;10.55;;;8.25;;
56045;SDS011;41913;51.030;3.706;2024-03-07T01:20:19;9.90;;;9.00;;
56045;SDS011;41913;51.030;3.706;2024-03-07T01:22:46;11.00;;;9.27;;
56045;SDS011;41913;51.030;3.706;2024-03-07T01:25:12;9.93;;;8.98;;
56045;SDS011;41913;51.030;3.706;2024-03-07T01:27:38;11.70;;;9.23;;
56045;SDS011;41913;51.030;3.706;2024-03-07T01:30:05;9.60;;;8.55;;
56045;SDS011;41913;51.030;3.706;2024-03-07T01:32:33;10.70;;;9.60;;
56045;SDS011;41913;51.030;3.706;2024-03-07T01:34:59;12.05;;;9.73;;
56045;SDS011;41913;51.030;3.706;2024-03-07T01:37:25;11.45;;;10.23;;
56045;SDS011;41913;51.030;3.706;2024-03-07T01:39:51;12.30;;;10.13;;
56045;SDS011;41913;51.030;3.706;2024-03-07T01:42:17;10.98;;;8.63;;
56045;SDS011;41913;51.030;3.706;2024-03-07T01:44:43;9.45;;;8.50;;
56045;SDS011;41913;51.030;3.706;2024-03-07T01:47:09;10.68;;;9.30;;
56045;SDS011;41913;51.030;3.706;2024-03-07T01:49:36;11.68;;;9.77;;
56045;SDS011;41913;51.030;3.706;2024-03-07T01:52:04;9.80;;;8.90;;
56045;SDS011;41913;51.030;3.706;2024-03-07T01:54:33;11.73;;;9.85;;
56045;SDS011;41913;51.030;3.706;2024-03-07T01:57:01;13.15;;;9.98;;
56045;SDS011;41913;51.030;3.706;2024-03-07T01:59:29;14.65;;;10.60;;
56045;SDS011;41913;51.030;3.706;2024-03-07T02:01:58;11.30;;;9.18;;
56045;SDS011;41913;51.030;3.706;2024-03-07T02:04:27;11.65;;;10.05;;
56045;SDS011;41913;51.030;3.706;2024-03-07T02:06:53;10.25;;;9.23;;
56045;SDS011;41913;51.030;3.706;2024-03-07T02:09:20;11.27;;;9.98;;
56045;SDS011;41913;51.030;3.706;2024-03-07T02:11:49;11.30;;;9.98;;
56045;SDS011;41913;51.030;3.706;2024-03-07T02:14:15;11.02;;;9.90;;
56045;SDS011;41913;51.030;3.706;2024-03-07T02:16:41;13.40;;;11.57;;
56045;SDS011;41913;51.030;3.706;2024-03-07T02:19:11;12.43;;;10.60;;
56045;SDS011;41913;51.030;3.706;2024-03-07T02:21:40;11.95;;;10.38;;
56045;SDS011;41913;51.030;3.706;2024-03-07T02:24:06;13.25;;;11.13;;
56045;SDS011;41913;51.030;3.706;2024-03-07T02:26:31;14.05;;;11.93;;
56045;SDS011;41913;51.030;3.706;2024-03-07T02:28:57;10.75;;;9.63;;
56045;SDS011;41913;51.030;3.706;2024-03-07T02:31:23;11.90;;;10.70;;
56045;SDS011;41913;51.030;3.706;2024-03-07T02:34:03;16.17;;;11.45;;
56045;SDS011;41913;51.030;3.706;2024-03-07T02:36:29;13.25;;;10.73;;
56045;SDS011;41913;51.030;3.706;2024-03-07T02:38:55;11.68;;;10.48;;
56045;SDS011;41913;51.030;3.706;2024-03-07T02:41:21;11.43;;;10.23;;
56045;SDS011;41913;51.030;3.706;2024-03-07T02:43:46;12.82;;;10.38;;
56045;SDS011;41913;51.030;3.706;2024-03-07T02:46:12;12.00;;;10.80;;
56045;SDS011;41913;51.030;3.706;2024-03-07T02:48:39;12.73;;;11.13;;
56045;SDS011;41913;51.030;3.706;2024-03-07T02:51:05;12.27;;;11.05;;
56045;SDS011;41913;51.030;3.706;2024-03-07T02:53:33;14.63;;;11.15;;
56045;SDS011;41913;51.030;3.706;2024-03-07T02:55:59;11.68;;;10.40;;
56045;SDS011;41913;51.030;3.706;2024-03-07T02:58:25;12.45;;;10.90;;
56045;SDS011;41913;51.030;3.706;2024-03-07T03:00:57;13.55;;;11.10;;
56045;SDS011;41913;51.030;3.706;2024-03-07T03:03:28;14.15;;;11.30;;
56045;SDS011;41913;51.030;3.706;2024-03-07T03:05:57;12.65;;;10.73;;
56045;SDS011;41913;51.030;3.706;2024-03-07T03:08:23;12.93;;;10.70;;
56045;SDS011;41913;51.030;3.706;2024-03-07T03:10:49;14.07;;;11.10;;
56045;SDS011;41913;51.030;3.706;2024-03-07T03:13:18;13.85;;;11.98;;
56045;SDS011;41913;51.030;3.706;2024-03-07T03:15:44;12.73;;;10.45;;
56045;SDS011;41913;51.030;3.706;2024-03-07T03:18:09;15.07;;;12.25;;
56045;SDS011;41913;51.030;3.706;2024-03-07T03:20:35;13.13;;;11.07;;
56045;SDS011;41913;51.030;3.706;2024-03-07T03:23:05;12.23;;;10.95;;
56045;SDS011;41913;51.030;3.706;2024-03-07T03:25:31;12.75;;;11.35;;
56045;SDS011;41913;51.030;3.706;2024-03-07T03:28:00;14.35;;;12.40;;
56045;SDS011;41913;51.030;3.706;2024-03-07T03:30:27;15.05;;;12.80;;
56045;SDS011;41913;51.030;3.706;2024-03-07T03:32:52;15.57;;;12.05;;
56045;SDS011;41913;51.030;3.706;2024-03-07T03:35:18;13.90;;;12.18;;
56045;SDS011;41913;51.030;3.706;2024-03-07T03:37:44;17.80;;;13.02;;
56045;SDS011;41913;51.030;3.706;2024-03-07T03:40:10;14.75;;;11.90;;
56045;SDS011;41913;51.030;3.706;2024-03-07T03:42:41;14.05;;;12.60;;
56045;SDS011;41913;51.030;3.706;2024-03-07T03:45:08;17.65;;;12.02;;
56045;SDS011;41913;51.030;3.706;2024-03-07T03:47:39;12.82;;;11.52;;
56045;SDS011;41913;51.030;3.706;2024-03-07T03:50:08;16.17;;;12.52;;
56045;SDS011;41913;51.030;3.706;2024-03-07T03:52:36;13.90;;;11.57;;
56045;SDS011;41913;51.030;3.706;2024-03-07T03:55:02;15.52;;;12.55;;
56045;SDS011;41913;51.030;3.706;2024-03-07T03:57:30;14.98;;;12.43;;
56045;SDS011;41913;51.030;3.706;2024-03-07T03:59:57;14.52;;;11.77;;
56045;SDS011;41913;51.030;3.706;2024-03-07T04:02:23;13.60;;;11.35;;
56045;SDS011;41913;51.030;3.706;2024-03-07T04:04:50;14.93;;;12.45;;
56045;SDS011;41913;51.030;3.706;2024-03-07T04:07:19;13.07;;;11.68;;
56045;SDS011;41913;51.030;3.706;2024-03-07T04:09:46;15.25;;;12.90;;
56045;SDS011;41913;51.030;3.706;2024-03-07T04:12:12;14.88;;;11.90;;
56045;SDS011;41913;51.030;3.706;2024-03-07T04:14:42;16.73;;;12.82;;
56045;SDS011;41913;51.030;3.706;2024-03-07T04:17:08;16.40;;;12.13;;
56045;SDS011;41913;51.030;3.706;2024-03-07T04:19:40;16.27;;;12.48;;
56045;SDS011;41913;51.030;3.706;2024-03-07T04:22:07;17.90;;;12.95;;
56045;SDS011;41913;51.030;3.706;2024-03-07T04:24:36;16.67;;;12.25;;
56045;SDS011;41913;51.030;3.706;2024-03-07T04:27:03;15.52;;;13.27;;
56045;SDS011;41913;51.030;3.706;2024-03-07T04:29:29;15.20;;;11.75;;
56045;SDS011;41913;51.030;3.706;2024-03-07T04:31:57;15.90;;;12.80;;
56045;SDS011;41913;51.030;3.706;2024-03-07T04:34:23;15.38;;;12.20;;
56045;SDS011;41913;51.030;3.706;2024-03-07T04:36:49;14.50;;;12.93;;
56045;SDS011;41913;51.030;3.706;2024-03-07T04:39:15;16.10;;;12.82;;
56045;SDS011;41913;51.030;3.706;2024-03-07T04:42:10;15.45;;;12.18;;
56045;SDS011;41913;51.030;3.706;2024-03-07T04:44:36;14.40;;;11.68;;
56045;SDS011;41913;51.030;3.706;2024-03-07T04:47:02;17.48;;;13.07;;
56045;SDS011;41913;51.030;3.706;2024-03-07T04:49:29;13.85;;;11.70;;
56045;SDS011;41913;51.030;3.706;2024-03-07T04:51:57;15.43;;;12.52;;
56045;SDS011;41913;51.030;3.706;2024-03-07T04:54:24;15.23;;;12.65;;
56045;SDS011;41913;51.030;3.706;2024-03-07T04:56:51;16.65;;;12.23;;
56045;SDS011;41913;51.030;3.706;2024-03-07T04:59:18;17.17;;;11.77;;
56045;SDS011;41913;51.030;3.706;2024-03-07T05:01:46;14.18;;;11.45;;
56045;SDS011;41913;51.030;3.706;2024-03-07T05:04:12;14.40;;;11.93;;
56045;SDS011;41913;51.030;3.706;2024-03-07T05:06:39;14.48;;;10.70;;
56045;SDS011;41913;51.030;3.706;2024-03-07T05:09:05;17.10;;;12.18;;
56045;SDS011;41913;51.030;3.706;2024-03-07T05:11:33;13.63;;;11.95;;
56045;SDS011;41913;51.030;3.706;2024-03-07T05:14:00;13.93;;;11.73;;
56045;SDS011;41913;51.030;3.706;2024-03-07T05:16:27;17.42;;;13.05;;
56045;SDS011;41913;51.030;3.706;2024-03-07T05:18:54;15.40;;;12.00;;
56045;SDS011;41913;51.030;3.706;2024-03-07T05:21:25;16.25;;;12.32;;
56045;SDS011;41913;51.030;3.706;2024-03-07T05:26:23;15.55;;;12.32;;
56045;SDS011;41913;51.030;3.706;2024-03-07T05:28:49;15.20;;;11.55;;
56045;SDS011;41913;51.030;3.706;2024-03-07T05:31:15;14.82;;;11.90;;
56045;SDS011;41913;51.030;3.706;2024-03-07T05:33:43;17.20;;;13.02;;
56045;SDS011;41913;51.030;3.706;2024-03-07T05:36:09;14.10;;;12.60;;
56045;SDS011;41913;51.030;3.706;2024-03-07T05:38:41;15.02;;;12.65;;
56045;SDS011;41913;51.030;3.706;2024-03-07T05:41:10;16.60;;;11.48;;
56045;SDS011;41913;51.030;3.706;2024-03-07T05:43:38;15.02;;;11.88;;
56045;SDS011;41913;51.030;3.706;2024-03-07T05:46:04;17.73;;;13.20;;
56045;SDS011;41913;51.030;3.706;2024-03-07T05:48:32;17.50;;;13.35;;
56045;SDS011;41913;51.030;3.706;2024-03-07T05:50:59;18.33;;;12.63;;
56045;SDS011;41913;51.030;3.706;2024-03-07T05:53:25;14.82;;;12.05;;
56045;SDS011;41913;51.030;3.706;2024-03-07T05:55:51;18.40;;;12.10;;
56045;SDS011;41913;51.030;3.706;2024-03-07T05:58:16;18.48;;;12.88;;
56045;SDS011;41913;51.030;3.706;2024-03-07T06:00:48;15.90;;;12.27;;
56045;SDS011;41913;51.030;3.706;2024-03-07T06:03:17;15.77;;;11.50;;
56045;SDS011;41913;51.030;3.706;2024-03-07T06:05:44;17.52;;;12.23;;
56045;SDS011;41913;51.030;3.706;2024-03-07T06:08:19;16.42;;;12.80;;
56045;SDS011;41913;51.030;3.706;2024-03-07T06:13:13;18.33;;;12.63;;
56045;SDS011;41913;51.030;3.706;2024-03-07T06:15:44;14.43;;;10.88;;
56045;SDS011;41913;51.030;3.706;2024-03-07T06:18:11;16.15;;;13.38;;
56045;SDS011;41913;51.030;3.706;2024-03-07T06:20:41;20.63;;;12.95;;
56045;SDS011;41913;51.030;3.706;2024-03-07T06:23:10;22.83;;;13.55;;
56045;SDS011;41913;51.030;3.706;2024-03-07T06:25:41;17.90;;;13.80;;
56045;SDS011;41913;51.030;3.706;2024-03-07T06:28:12;28.60;;;14.57;;
56045;SDS011;41913;51.030;3.706;2024-03-07T06:30:42;27.77;;;15.07;;
56045;SDS011;41913;51.030;3.706;2024-03-07T06:33:10;21.20;;;14.60;;
56045;SDS011;41913;51.030;3.706;2024-03-07T06:35:36;24.92;;;15.25;;
56045;SDS011;41913;51.030;3.706;2024-03-07T06:38:06;33.40;;;14.90;;
56045;SDS011;41913;51.030;3.706;2024-03-07T06:40:34;25.63;;;16.15;;
56045;SDS011;41913;51.030;3.706;2024-03-07T06:43:05;30.88;;;16.83;;
56045;SDS011;41913;51.030;3.706;2024-03-07T06:45:37;33.97;;;18.80;;
56045;SDS011;41913;51.030;3.706;2024-03-07T06:48:07;25.30;;;15.95;;
56045;SDS011;41913;51.030;3.706;2024-03-07T06:50:33;34.10;;;17.92;;
56045;SDS011;41913;51.030;3.706;2024-03-07T06:53:00;30.02;;;16.95;;
56045;SDS011;41913;51.030;3.706;2024-03-07T06:55:31;28.70;;;15.93;;
56045;SDS011;41913;51.030;3.706;2024-03-07T06:58:01;30.13;;;17.08;;
56045;SDS011;41913;51.030;3.706;2024-03-07T07:00:29;25.60;;;17.42;;
56045;SDS011;41913;51.030;3.706;2024-03-07T07:02:57;35.70;;;16.90;;
56045;SDS011;41913;51.030;3.706;2024-03-07T07:05:23;26.38;;;16.83;;
56045;SDS011;41913;51.030;3.706;2024-03-07T07:07:48;28.95;;;18.85;;
56045;SDS011;41913;51.030;3.706;2024-03-07T07:10:14;30.73;;;17.42;;
56045;SDS011;41913;51.030;3.706;2024-03-07T07:12:46;30.38;;;18.30;;
56045;SDS011;41913;51.030;3.706;2024-03-07T07:15:18;28.25;;;18.23;;
56045;SDS011;41913;51.030;3.706;2024-03-07T07:17:44;27.88;;;17.33;;
56045;SDS011;41913;51.030;3.706;2024-03-07T07:20:12;23.30;;;16.65;;
56045;SDS011;41913;51.030;3.706;2024-03-07T07:22:41;28.38;;;18.52;;
56045;SDS011;41913;51.030;3.706;2024-03-07T07:25:07;27.40;;;17.52;;
56045;SDS011;41913;51.030;3.706;2024-03-07T07:27:51;24.40;;;18.63;;
56045;SDS011;41913;51.030;3.706;2024-03-07T07:30:19;29.33;;;18.27;;
56045;SDS011;41913;51.030;3.706;2024-03-07T07:32:48;28.95;;;17.70;;
56045;SDS011;41913;51.030;3.706;2024-03-07T07:35:15;35.50;;;18.63;;
56045;SDS011;41913;51.030;3.706;2024-03-07T07:37:42;26.13;;;18.55;;
56045;SDS011;41913;51.030;3.706;2024-03-07T07:40:09;30.15;;;18.13;;
56045;SDS011;41913;51.030;3.706;2024-03-07T07:42:42;26.63;;;18.77;;
56045;SDS011;41913;51.030;3.706;2024-03-07T07:45:09;29.38;;;18.38;;
56045;SDS011;41913;51.030;3.706;2024-03-07T07:47:37;26.27;;;18.52;;
56045;SDS011;41913;51.030;3.706;2024-03-07T07:50:06;27.77;;;18.10;;
56045;SDS011;41913;51.030;3.706;2024-03-07T07:52:49;33.83;;;19.52;;
56045;SDS011;41913;51.030;3.706;2024-03-07T07:55:18;24.85;;;17.92;;
56045;SDS011;41913;51.030;3.706;2024-03-07T07:57:54;31.00;;;20.17;;
56045;SDS011;41913;51.030;3.706;2024-03-07T08:00:22;27.77;;;18.52;;
56045;SDS011;41913;51.030;3.706;2024-03-07T08:02:53;29.27;;;17.08;;
56045;SDS011;41913;51.030;3.706;2024-03-07T08:05:21;28.15;;;17.98;;
56045;SDS011;41913;51.030;3.706;2024-03-07T08:07:51;28.30;;;19.13;;
56045;SDS011;41913;51.030;3.706;2024-03-07T08:10:18;27.98;;;19.38;;
56045;SDS011;41913;51.030;3.706;2024-03-07T08:12:45;27.65;;;18.63;;
56045;SDS011;41913;51.030;3.706;2024-03-07T08:15:11;27.42;;;19.67;;
56045;SDS011;41913;51.030;3.706;2024-03-07T08:17:45;34.13;;;20.73;;
56045;SDS011;41913;51.030;3.706;2024-03-07T08:20:12;27.80;;;18.73;;
56045;SDS011;41913;51.030;3.706;2024-03-07T08:22:40;27.33;;;19.15;;
56045;SDS011;41913;51.030;3.706;2024-03-07T08:25:07;34.40;;;18.30;;
56045;SDS011;41913;51.030;3.706;2024-03-07T08:27:40;31.63;;;19.63;;
56045;SDS011;41913;51.030;3.706;2024-03-07T08:30:07;27.42;;;18.35;;
56045;SDS011;41913;51.030;3.706;2024-03-07T08:32:48;31.40;;;19.35;;
56045;SDS011;41913;51.030;3.706;2024-03-07T08:35:17;24.73;;;17.75;;
56045;SDS011;41913;51.030;3.706;2024-03-07T08:37:47;28.45;;;18.92;;
56045;SDS011;41913;51.030;3.706;2024-03-07T08:40:18;29.70;;;19.23;;
56045;SDS011;41913;51.030;3.706;2024-03-07T08:42:49;25.05;;;18.27;;
56045;SDS011;41913;51.030;3.706;2024-03-07T08:45:17;25.88;;;18.00;;
56045;SDS011;41913;51.030;3.706;2024-03-07T08:47:47;27.92;;;18.85;;
56045;SDS011;41913;51.030;3.706;2024-03-07T08:50:15;28.77;;;20.00;;
56045;SDS011;41913;51.030;3.706;2024-03-07T08:52:43;28.17;;;17.67;;
56045;SDS011;41913;51.030;3.706;2024-03-07T08:55:13;28.27;;;19.33;;
56045;SDS011;41913;51.030;3.706;2024-03-07T09:00:12;25.13;;;18.15;;
56045;SDS011;41913;51.030;3.706;2024-03-07T09:02:59;32.35;;;20.42;;
56045;SDS011;41913;51.030;3.706;2024-03-07T09:05:28;27.55;;;19.23;;
56045;SDS011;41913;51.030;3.706;2024-03-07T09:07:57;34.70;;;21.10;;
56045;SDS011;41913;51.030;3.706;2024-03-07T09:10:24;29.33;;;18.70;;
56045;SDS011;41913;51.030;3.706;2024-03-07T09:12:51;31.17;;;20.38;;
56045;SDS011;41913;51.030;3.706;2024-03-07T09:15:17;30.38;;;19.05;;
56045;SDS011;41913;51.030;3.706;2024-03-07T09:17:44;28.20;;;19.20;;
56045;SDS011;41913;51.030;3.706;2024-03-07T09:20:13;30.33;;;20.00;;
56045;SDS011;41913;51.030;3.706;2024-03-07T09:22:41;34.40;;;19.60;;
56045;SDS011;41913;51.030;3.706;2024-03-07T09:25:08;33.10;;;20.10;;
56045;SDS011;41913;51.030;3.706;2024-03-07T09:27:35;29.70;;;19.23;;
56045;SDS011;41913;51.030;3.706;2024-03-07T09:30:00;27.70;;;19.38;;
56045;SDS011;41913;51.030;3.706;2024-03-07T09:32:26;33.58;;;18.52;;
56045;SDS011;41913;51.030;3.706;2024-03-07T09:34:53;31.30;;;19.30;;
56045;SDS011;41913;51.030;3.706;2024-03-07T09:37:19;25.83;;;19.00;;
56045;SDS011;41913;51.030;3.706;2024-03-07T09:39:46;31.35;;;19.23;;
56045;SDS011;41913;51.030;3.706;2024-03-07T09:42:12;25.42;;;16.80;;
56045;SDS011;41913;51.030;3.706;2024-03-07T09:44:42;26.73;;;17.90;;
56045;SDS011;41913;51.030;3.706;2024-03-07T09:47:10;26.55;;;18.40;;
56045;SDS011;41913;51.030;3.706;2024-03-07T09:49:37;25.08;;;16.70;;
56045;SDS011;41913;51.030;3.706;2024-03-07T09:52:04;23.13;;;16.83;;
56045;SDS011;41913;51.030;3.706;2024-03-07T09:54:34;24.20;;;17.10;;
56045;SDS011;41913;51.030;3.706;2024-03-07T09:57:00;28.10;;;16.92;;
56045;SDS011;41913;51.030;3.706;2024-03-07T09:59:28;23.52;;;16.98;;
56045;SDS011;41913;51.030;3.706;2024-03-07T10:01:56;26.40;;;17.58;;
56045;SDS011;41913;51.030;3.706;2024-03-07T10:07:13;25.00;;;17.67;;
56045;SDS011;41913;51.030;3.706;2024-03-07T10:09:41;28.23;;;17.73;;
56045;SDS011;41913;51.030;3.706;2024-03-07T10:12:07;25.20;;;16.45;;
56045;SDS011;41913;51.030;3.706;2024-03-07T10:14:38;28.10;;;17.73;;
56045;SDS011;41913;51.030;3.706;2024-03-07T10:17:04;26.38;;;16.00;;
56045;SDS011;41913;51.030;3.706;2024-03-07T10:19:30;25.67;;;17.25;;
56045;SDS011;41913;51.030;3.706;2024-03-07T10:21:56;25.67;;;17.02;;
56045;SDS011;41913;51.030;3.706;2024-03-07T10:24:24;29.58;;;18.42;;
56045;SDS011;41913;51.030;3.706;2024-03-07T10:26:51;28.10;;;18.45;;
56045;SDS011;41913;51.030;3.706;2024-03-07T10:29:17;29.58;;;19.38;;
56045;SDS011;41913;51.030;3.706;2024-03-07T10:31:43;27.83;;;18.48;;
56045;SDS011;41913;51.030;3.706;2024-03-07T10:34:11;26.60;;;17.02;;
56045;SDS011;41913;51.030;3.706;2024-03-07T10:36:37;25.27;;;17.35;;
56045;SDS011;41913;51.030;3.706;2024-03-07T10:39:05;28.63;;;17.65;;
56045;SDS011;41913;51.030;3.706;2024-03-07T10:41:48;25.50;;;16.23;;
56045;SDS011;41913;51.030;3.706;2024-03-07T10:46:57;29.30;;;16.25;;
56045;SDS011;41913;51.030;3.706;2024-03-07T10:49:28;23.73;;;17.17;;
56045;SDS011;41913;51.030;3.706;2024-03-07T10:52:03;21.85;;;15.88;;
56045;SDS011;41913;51.030;3.706;2024-03-07T10:57:29;23.27;;;16.08;;
56045;SDS011;41913;51.030;3.706;2024-03-07T11:00:02;23.50;;;15.52;;
56045;SDS011;41913;51.030;3.706;2024-03-07T11:02:52;24.15;;;14.75;;
56045;SDS011;41913;51.030;3.706;2024-03-07T11:05:21;24.33;;;16.38;;
56045;SDS011;41913;51.030;3.706;2024-03-07T11:07:55;23.10;;;15.00;;
56045;SDS011;41913;51.030;3.706;2024-03-07T11:10:24;21.90;;;15.82;;
56045;SDS011;41913;51.030;3.706;2024-03-07T11:12:50;20.40;;;14.73;;
56045;SDS011;41913;51.030;3.706;2024-03-07T11:15:17;21.48;;;15.55;;
56045;SDS011;41913;51.030;3.706;2024-03-07T11:17:47;21.48;;;15.18;;
56045;SDS011;41913;51.030;3.706;2024-03-07T11:20:22;17.48;;;12.70;;
56045;SDS011;41913;51.030;3.706;2024-03-07T11:22:49;17.50;;;13.73;;
56045;SDS011;41913;51.030;3.706;2024-03-07T11:25:19;20.75;;;14.88;;
56045;SDS011;41913;51.030;3.706;2024-03-07T11:27:56;19.83;;;14.40;;
56045;SDS011;41913;51.030;3.706;2024-03-07T11:30:23;23.02;;;15.23;;
56045;SDS011;41913;51.030;3.706;2024-03-07T11:32:50;18.15;;;14.00;;
56045;SDS011;41913;51.030;3.706;2024-03-07T11:35:32;18.95;;;13.73;;
56045;SDS011;41913;51.030;3.706;2024-03-07T11:38:00;23.40;;;14.60;;
56045;SDS011;41913;51.030;3.706;2024-03-07T11:42:55;20.15;;;13.32;;
56045;SDS011;41913;51.030;3.706;2024-03-07T11:45:25;15.98;;;12.43;;
56045;SDS011;41913;51.030;3.706;2024-03-07T11:47:52;17.08;;;13.20;;
56045;SDS011;41913;51.030;3.706;2024-03-07T11:50:40;19.17;;;12.55;;
56045;SDS011;41913;51.030;3.706;2024-03-07T11:53:07;16.55;;;13.25;;
56045;SDS011;41913;51.030;3.706;2024-03-07T11:55:35;18.67;;;11.98;;
56045;SDS011;41913;51.030;3.706;2024-03-07T11:58:15;17.83;;;12.93;;
56045;SDS011;41913;51.030;3.706;2024-03-07T12:00:44;19.52;;;13.20;;
56045;SDS011;41913;51.030;3.706;2024-03-07T12:03:20;18.60;;;12.48;;
56045;SDS011;41913;51.030;3.706;2024-03-07T12:05:49;17.95;;;12.48;;
56045;SDS011;41913;51.030;3.706;2024-03-07T12:08:16;21.38;;;12.30;;
56045;SDS011;41913;51.030;3.706;2024-03-07T12:10:43;16.65;;;12.23;;
56045;SDS011;41913;51.030;3.706;2024-03-07T12:13:13;15.38;;;11.25;;
56045;SDS011;41913;51.030;3.706;2024-03-07T12:15:42;15.35;;;12.10;;
56045;SDS011;41913;51.030;3.706;2024-03-07T12:18:09;15.35;;;11.27;;
56045;SDS011;41913;51.030;3.706;2024-03-07T12:20:39;14.15;;;11.20;;
56045;SDS011;41913;51.030;3.706;2024-03-07T12:23:08;14.50;;;11.82;;
56045;SDS011;41913;51.030;3.706;2024-03-07T12:25:35;15.93;;;12.00;;
56045;SDS011;41913;51.030;3.706;2024-03-07T12:30:38;14.30;;;11.52;;
56045;SDS011;41913;51.030;3.706;2024-03-07T12:33:17;13.43;;;10.60;;
56045;SDS011;41913;51.030;3.706;2024-03-07T12:35:45;15.00;;;11.73;;
56045;SDS011;41913;51.030;3.706;2024-03-07T12:38:16;13.93;;;11.02;;
56045;SDS011;41913;51.030;3.706;2024-03-07T12:41:10;13.32;;;10.93;;
56045;SDS011;41913;51.030;3.706;2024-03-07T12:43:41;14.30;;;10.05;;
56045;SDS011;41913;51.030;3.706;2024-03-07T12:46:10;14.65;;;11.10;;
56045;SDS011;41913;51.030;3.706;2024-03-07T12:48:40;11.43;;;9.70;;
56045;SDS011;41913;51.030;3.706;2024-03-07T12:51:06;13.60;;;10.93;;
56045;SDS011;41913;51.030;3.706;2024-03-07T12:53:32;10.52;;;9.27;;
56045;SDS011;41913;51.030;3.706;2024-03-07T12:56:01;12.18;;;10.38;;
56045;SDS011;41913;51.030;3.706;2024-03-07T12:58:28;13.27;;;10.73;;
56045;SDS011;41913;51.030;3.706;2024-03-07T13:00:55;11.25;;;9.38;;
56045;SDS011;41913;51.030;3.706;2024-03-07T13:03:25;12.50;;;10.23;;
56045;SDS011;41913;51.030;3.706;2024-03-07T13:05:57;13.65;;;10.77;;
56045;SDS011;41913;51.030;3.706;2024-03-07T13:08:26;11.30;;;9.95;;
56045;SDS011;41913;51.030;3.706;2024-03-07T13:10:55;10.27;;;9.00;;
56045;SDS011;41913;51.030;3.706;2024-03-07T13:13:24;11.85;;;10.02;;
56045;SDS011;41913;51.030;3.706;2024-03-07T13:15:49;12.18;;;9.18;;
56045;SDS011;41913;51.030;3.706;2024-03-07T13:18:19;11.65;;;9.68;;
56045;SDS011;41913;51.030;3.706;2024-03-07T13:20:45;10.18;;;9.10;;
56045;SDS011;41913;51.030;3.706;2024-03-07T13:23:11;13.15;;;9.88;;
56045;SDS011;41913;51.030;3.706;2024-03-07T13:25:39;11.93;;;10.00;;
56045;SDS011;41913;51.030;3.706;2024-03-07T13:28:07;14.65;;;10.75;;
56045;SDS011;41913;51.030;3.706;2024-03-07T13:30:44;13.60;;;9.52;;
56045;SDS011;41913;51.030;3.706;2024-03-07T13:33:13;13.70;;;9.95;;
56045;SDS011;41913;51.030;3.706;2024-03-07T13:35:39;14.85;;;10.30;;
56045;SDS011;41913;51.030;3.706;2024-03-07T13:38:06;9.50;;;8.60;;
56045;SDS011;41913;51.030;3.706;2024-03-07T13:40:32;10.73;;;9.13;;
56045;SDS011;41913;51.030;3.706;2024-03-07T13:43:03;10.63;;;9.20;;
56045;SDS011;41913;51.030;3.706;2024-03-07T13:45:30;11.20;;;9.13;;
56045;SDS011;41913;51.030;3.706;2024-03-07T13:48:09;11.82;;;9.57;;
56045;SDS011;41913;51.030;3.706;2024-03-07T13:50:38;9.75;;;8.70;;
56045;SDS011;41913;51.030;3.706;2024-03-07T13:53:09;11.85;;;9.63;;
56045;SDS011;41913;51.030;3.706;2024-03-07T14:07:08;10.15;;;8.85;;
56045;SDS011;41913;51.030;3.706;2024-03-07T14:10:43;15.18;;;10.80;;
56045;SDS011;41913;51.030;3.706;2024-03-07T14:27:37;9.40;;;8.50;;
56045;SDS011;41913;51.030;3.706;2024-03-07T14:33:00;10.73;;;9.15;;
56045;SDS011;41913;51.030;3.706;2024-03-07T14:35:35;10.90;;;9.63;;
56045;SDS011;41913;51.030;3.706;2024-03-07T14:41:04;10.02;;;9.02;;
56045;SDS011;41913;51.030;3.706;2024-03-07T14:43:34;9.82;;;8.85;;
56045;SDS011;41913;51.030;3.706;2024-03-07T14:46:00;10.13;;;9.02;;
56045;SDS011;41913;51.030;3.706;2024-03-07T14:48:26;10.02;;;9.02;;
56045;SDS011;41913;51.030;3.706;2024-03-07T14:50:52;10.63;;;9.43;;
56045;SDS011;41913;51.030;3.706;2024-03-07T14:53:18;9.63;;;8.63;;
56045;SDS011;41913;51.030;3.706;2024-03-07T14:55:47;9.27;;;8.45;;
56045;SDS011;41913;51.030;3.706;2024-03-07T14:58:13;12.85;;;9.65;;
56045;SDS011;41913;51.030;3.706;2024-03-07T15:00:43;9.30;;;8.50;;
56045;SDS011;41913;51.030;3.706;2024-03-07T15:03:16;11.23;;;10.02;;
56045;SDS011;41913;51.030;3.706;2024-03-07T15:05:43;9.15;;;8.25;;
56045;SDS011;41913;51.030;3.706;2024-03-07T15:08:10;11.63;;;9.50;;
56045;SDS011;41913;51.030;3.706;2024-03-07T15:10:37;11.95;;;9.68;;
56045;SDS011;41913;51.030;3.706;2024-03-07T15:13:17;9.27;;;8.38;;
56045;SDS011;41913;51.030;3.706;2024-03-07T15:15:43;11.50;;;10.30;;
56045;SDS011;41913;51.030;3.706;2024-03-07T15:18:11;11.35;;;9.10;;
56045;SDS011;41913;51.030;3.706;2024-03-07T15:20:37;13.30;;;9.55;;
56045;SDS011;41913;51.030;3.706;2024-03-07T15:23:03;9.20;;;8.35;;
56045;SDS011;41913;51.030;3.706;2024-03-07T15:25:31;10.57;;;9.48;;
56045;SDS011;41913;51.030;3.706;2024-03-07T15:27:58;11.05;;;9.85;;